METAR AND TAF INFORMATION
METAR FOR KJLN
KJLN 270553Z AUTO 19015KT 7SM CLR 21/08 A2946 RMK AO2 SLP965 T02060078 10211 20172 402500094 58017
KJLN 270453Z AUTO 19014G21KT 9SM CLR 21/07 A2948 RMK AO2 SLP971 T02060067
KJLN 270353Z AUTO 18012KT 10SM CLR 21/07 A2950 RMK AO2 SLP979 T02060067
KJLN 270520Z 2706/2806 20011KT P6SM SCT250 WS020/24045KT
FM271000 21014G23KT P6SM SCT250
FM271500 22015G34KT P6SM BKN250
FM272000 23021G38KT P6SM SCT250
FM280000 24016G25KT P6SM BKN250
FM280200 33017G26KT P6SM BKN150

 AIRPORT MAP

 RUNWAY INFORMATION
Runway 05 Runway length 3604 ft Runway width 75 ft
Runway elevation 981 ft Runway displaced threshold 0 ft Runway heading 50
Runway 23 Runway length 3604 ft Runway width 75 ft
Runway elevation 976 ft Runway displaced threshold 0 ft Runway heading 230
Runway 13 Runway length 6502 ft Runway width 150 ft
Runway elevation 951 ft Runway displaced threshold 387 ft Runway heading 138
Runway 31 Runway length 6502 ft Runway width 150 ft
Runway elevation 978 ft Runway displaced threshold 300 ft Runway heading 318
Runway 18 Runway length 6500 ft Runway width 100 ft
Runway elevation 950 ft Runway displaced threshold 0 ft Runway heading 182
Runway 36 Runway length 6500 ft Runway width 100 ft
Runway elevation 972 ft Runway displaced threshold 0 ft Runway heading 2

 AIRPORT FREQUENCIES
Type ATIS Name ATIS Frequency 120.85 MHZ
Type CNTR Name KANSAS CIT Frequency 128.6 MHZ
Type CTAF Name CTAF Frequency 119.8 MHZ
Type GND Name GND Frequency 121.6 MHZ
Type RDO Name COLUMBIA R Frequency 122.6 MHZ
Type TWR Name TWR Frequency 119.8 MHZ
Type UNIC Name UNICOM Frequency 122.95 MHZ

 AIRPORT NEAR NAVIGATION AIDS
Type VOR-DME Name Neosho Frequency 117300 KHZ
Type NDB Name Lunns Frequency 344 KHZ

-